Time;durP1;ratioP1;P1;durP2;ratioP2;P2;SDS_P1;SDS_P2;PMS_P1;PMS_P2;Temp;Humidity;BMP_temperature;BMP_pressure;BME280_temperature;BME280_humidity;BME280_pressure;Samples;Min_cycle;Max_cycle;Signal;HPM_P1;HPM_P2
2023/03/20 00:02:00;;;;;;;31.37;20.87;;;9.70;99.90;;;;;;4981258;28;20484;-76
2023/03/20 00:04:29;;;;;;;29.83;19.93;;;9.70;99.90;;;;;;4986756;28;20473;-76
2023/03/20 00:06:57;;;;;;;32.87;20.40;;;9.70;99.90;;;;;;4980104;28;20857;-76
2023/03/20 00:09:25;;;;;;;28.87;19.40;;;9.70;99.90;;;;;;4985818;28;21018;-76
2023/03/20 00:11:55;;;;;;;30.47;20.07;;;9.70;99.90;;;;;;4984880;28;20496;-76
2023/03/20 00:14:25;;;;;;;34.60;21.10;;;9.70;99.90;;;;;;4984154;28;20469;-76
2023/03/20 00:16:53;;;;;;;36.40;22.60;;;9.70;99.90;;;;;;4983560;28;20509;-75
2023/03/20 00:19:24;;;;;;;31.03;20.10;;;9.70;99.90;;;;;;4984932;28;20488;-76
2023/03/20 00:21:55;;;;;;;32.57;21.10;;;9.70;99.90;;;;;;4980494;28;20488;-75
2023/03/20 00:24:24;;;;;;;33.10;21.40;;;9.70;99.90;;;;;;4984394;28;20468;-76
2023/03/20 00:26:53;;;;;;;33.67;21.90;;;9.70;99.90;;;;;;4986815;28;20469;-76
2023/03/20 00:29:23;;;;;;;34.87;22.53;;;9.70;99.90;;;;;;4984021;28;20959;-76
2023/03/20 00:31:52;;;;;;;35.67;21.67;;;9.70;99.90;;;;;;4985751;28;20497;-76
2023/03/20 00:34:23;;;;;;;30.30;20.50;;;9.70;99.90;;;;;;4985300;28;20882;-76
2023/03/20 00:36:51;;;;;;;33.20;22.33;;;9.70;99.90;;;;;;4981043;28;20469;-77
2023/03/20 00:39:20;;;;;;;29.53;20.70;;;9.70;99.90;;;;;;4986647;28;20500;-78
2023/03/20 00:41:51;;;;;;;32.53;21.07;;;9.70;99.90;;;;;;4984958;28;20480;-77
2023/03/20 00:44:22;;;;;;;33.47;22.17;;;9.80;99.90;;;;;;4984687;28;20481;-77
2023/03/20 00:46:53;;;;;;;28.77;18.97;;;9.70;99.90;;;;;;4986607;28;20543;-76
2023/03/20 00:49:24;;;;;;;34.27;20.43;;;9.70;99.90;;;;;;4982448;28;20497;-76
2023/03/20 00:51:52;;;;;;;33.60;22.77;;;9.70;99.90;;;;;;4985141;28;20476;-76
2023/03/20 00:54:21;;;;;;;29.73;20.20;;;9.80;99.90;;;;;;4988216;28;20481;-75
2023/03/20 00:56:55;;;;;;;35.27;22.27;;;9.80;99.90;;;;;;4989063;28;20864;-76
2023/03/20 00:59:26;;;;;;;34.43;22.17;;;9.70;99.90;;;;;;4987684;28;20683;-76
2023/03/20 01:01:55;;;;;;;32.20;21.43;;;9.70;99.90;;;;;;4988164;28;20495;-76
2023/03/20 01:04:23;;;;;;;31.00;20.90;;;9.70;99.90;;;;;;4986401;28;20552;-76
2023/03/20 01:06:51;;;;;;;36.17;21.60;;;9.70;99.90;;;;;;4985588;28;20504;-77
2023/03/20 01:09:20;;;;;;;30.33;20.20;;;9.70;99.90;;;;;;4986784;28;20496;-75
2023/03/20 01:11:48;;;;;;;33.77;20.90;;;9.70;99.90;;;;;;4988499;28;20476;-76
2023/03/20 01:14:17;;;;;;;33.90;20.60;;;9.70;99.90;;;;;;4988667;28;20477;-76
2023/03/20 01:16:45;;;;;;;34.13;21.00;;;9.70;99.90;;;;;;4989651;28;20905;-76
2023/03/20 01:19:15;;;;;;;30.83;21.37;;;9.70;99.90;;;;;;4986466;28;20501;-78
2023/03/20 01:21:43;;;;;;;28.30;19.90;;;9.70;99.90;;;;;;4987111;28;20507;-77
2023/03/20 01:24:11;;;;;;;33.63;21.80;;;9.70;99.90;;;;;;4987676;28;20473;-76
2023/03/20 01:26:42;;;;;;;33.27;20.80;;;9.70;99.90;;;;;;4989084;28;20982;-77
2023/03/20 01:29:18;;;;;;;32.93;20.97;;;9.70;99.90;;;;;;4989926;28;20503;-76
2023/03/20 01:31:46;;;;;;;34.40;21.87;;;9.70;99.90;;;;;;4985251;28;20958;-76
2023/03/20 01:34:15;;;;;;;31.40;21.70;;;9.70;99.90;;;;;;4987115;28;20475;-76
2023/03/20 01:36:48;;;;;;;33.33;21.33;;;9.70;99.90;;;;;;4986596;28;20549;-76
2023/03/20 01:39:17;;;;;;;27.93;19.07;;;9.70;99.90;;;;;;4980655;28;21113;-76
2023/03/20 01:41:47;;;;;;;31.60;20.20;;;9.70;99.90;;;;;;4987793;28;20966;-75
2023/03/20 01:44:21;;;;;;;31.43;20.80;;;9.70;99.90;;;;;;4985968;28;21025;-77
2023/03/20 01:46:51;;;;;;;32.27;20.40;;;9.70;99.90;;;;;;4987927;28;20547;-77
2023/03/20 01:49:57;;;;;;;32.47;21.70;;;9.70;99.90;;;;;;4984285;28;20992;-76
2023/03/20 01:52:25;;;;;;;28.93;19.83;;;9.70;99.90;;;;;;4984639;28;22953;-76
2023/03/20 01:54:53;;;;;;;28.90;20.17;;;9.70;99.90;;;;;;4986398;28;20482;-76
2023/03/20 01:57:24;;;;;;;29.33;18.97;;;9.70;99.90;;;;;;4981285;28;20556;-76
2023/03/20 02:00:00;;;;;;;28.20;18.20;;;9.70;99.90;;;;;;4984347;28;20496;-77
2023/03/20 02:02:31;;;;;;;29.07;18.30;;;9.70;99.90;;;;;;4981591;28;20500;-77
2023/03/20 02:05:03;;;;;;;32.07;19.67;;;9.60;99.90;;;;;;4988694;28;20488;-77
2023/03/20 02:07:33;;;;;;;28.33;18.70;;;9.60;99.90;;;;;;4988024;28;20481;-76
2023/03/20 02:10:02;;;;;;;29.60;17.93;;;9.60;99.90;;;;;;4987048;28;20879;-77
2023/03/20 02:12:32;;;;;;;29.83;18.77;;;9.60;99.90;;;;;;4982314;28;20508;-76
2023/03/20 02:15:00;;;;;;;27.90;17.83;;;9.50;99.90;;;;;;4986271;28;20477;-76
2023/03/20 02:17:28;;;;;;;29.87;17.93;;;9.50;99.90;;;;;;4988804;28;20481;-77
2023/03/20 02:20:06;;;;;;;28.03;19.53;;;9.50;99.90;;;;;;4981266;28;20492;-77
2023/03/20 02:23:04;;;;;;;26.37;17.07;;;9.50;99.90;;;;;;4986193;28;20481;-77
2023/03/20 02:26:10;;;;;;;24.27;16.30;;;9.40;99.90;;;;;;4988688;28;20596;-77
2023/03/20 02:29:28;;;;;;;21.00;14.77;;;9.40;99.90;;;;;;4955370;28;20496;-76
2023/03/20 02:32:37;;;;;;;24.87;16.23;;;9.40;99.90;;;;;;4992458;28;20845;-75
2023/03/20 02:35:40;;;;;;;25.30;15.03;;;9.30;99.90;;;;;;4986302;28;20473;-76
2023/03/20 02:38:25;;;;;;;22.90;15.10;;;9.30;99.90;;;;;;4987903;28;20913;-77
2023/03/20 02:41:01;;;;;;;22.00;15.00;;;9.20;99.90;;;;;;4988960;28;20503;-77
2023/03/20 02:43:39;;;;;;;23.67;15.03;;;9.20;99.90;;;;;;4988731;28;20485;-76
2023/03/20 02:46:13;;;;;;;22.90;14.40;;;9.20;99.90;;;;;;4990421;28;20553;-76
2023/03/20 02:48:51;;;;;;;26.87;14.93;;;9.10;99.90;;;;;;4989364;28;20546;-76
2023/03/20 02:51:27;;;;;;;21.73;12.67;;;9.10;99.90;;;;;;4989385;28;20967;-76
2023/03/20 02:54:05;;;;;;;19.60;12.93;;;9.10;99.90;;;;;;4992112;28;20488;-76
2023/03/20 02:56:37;;;;;;;18.20;12.20;;;9.10;99.90;;;;;;4990118;28;20468;-77
2023/03/20 02:59:16;;;;;;;14.67;10.57;;;9.00;99.90;;;;;;4992707;28;20848;-76
2023/03/20 03:01:49;;;;;;;13.57;10.00;;;8.90;99.90;;;;;;4988517;28;21061;-77
2023/03/20 03:04:20;;;;;;;12.83;9.10;;;8.90;99.90;;;;;;4983694;28;20484;-76
2023/03/20 03:06:50;;;;;;;14.97;9.40;;;8.90;99.90;;;;;;4987877;28;20473;-78
2023/03/20 03:09:24;;;;;;;12.13;8.30;;;8.90;99.90;;;;;;4988103;28;20504;-77
2023/03/20 03:11:55;;;;;;;10.20;7.90;;;8.90;99.90;;;;;;4985574;28;20500;-78
2023/03/20 03:14:33;;;;;;;9.43;7.20;;;8.90;99.90;;;;;;4987320;28;20476;-76
2023/03/20 03:17:04;;;;;;;10.00;7.13;;;8.80;99.90;;;;;;4984867;28;20499;-77
2023/03/20 03:19:35;;;;;;;10.03;7.50;;;8.80;99.90;;;;;;4987578;28;20500;-76
2023/03/20 03:22:04;;;;;;;10.03;6.60;;;8.80;99.90;;;;;;4988972;28;20488;-76
2023/03/20 03:24:36;;;;;;;9.27;6.60;;;8.80;99.90;;;;;;4985985;28;20914;-76
2023/03/20 03:27:16;;;;;;;9.60;6.40;;;8.80;99.90;;;;;;4987652;28;20503;-76
2023/03/20 03:29:49;;;;;;;11.83;7.57;;;8.70;99.90;;;;;;4982056;28;20492;-76
2023/03/20 03:32:25;;;;;;;10.53;6.70;;;8.70;99.90;;;;;;4985062;28;20504;-77
2023/03/20 03:34:54;;;;;;;8.77;6.63;;;8.70;99.90;;;;;;4987738;28;20477;-77
2023/03/20 03:37:37;;;;;;;8.23;6.27;;;8.70;99.90;;;;;;4988683;28;20977;-76
2023/03/20 03:40:19;;;;;;;8.33;6.27;;;8.70;99.90;;;;;;4991205;28;20492;-77
2023/03/20 03:42:54;;;;;;;8.87;6.20;;;8.70;99.90;;;;;;4980490;28;21056;-77
2023/03/20 03:45:26;;;;;;;8.87;6.47;;;8.70;99.90;;;;;;4987945;28;20468;-78
2023/03/20 03:47:59;;;;;;;9.70;7.27;;;8.70;99.90;;;;;;4984120;28;20473;-75
2023/03/20 03:50:32;;;;;;;7.93;5.60;;;8.60;99.90;;;;;;4985015;28;21017;-75
2023/03/20 03:53:06;;;;;;;8.13;5.97;;;8.60;99.90;;;;;;4985039;28;20493;-75
2023/03/20 03:55:39;;;;;;;8.33;6.60;;;8.60;99.90;;;;;;4987283;28;20476;-77
2023/03/20 03:58:11;;;;;;;7.73;5.90;;;8.60;99.90;;;;;;4988812;28;20502;-75
2023/03/20 04:00:42;;;;;;;9.07;6.97;;;8.60;99.90;;;;;;4989318;28;20493;-75
2023/03/20 04:03:11;;;;;;;10.33;6.80;;;8.60;99.90;;;;;;4988275;28;20868;-77
2023/03/20 04:05:44;;;;;;;8.73;6.40;;;8.60;99.90;;;;;;4984926;28;20878;-76
2023/03/20 04:08:12;;;;;;;8.73;6.67;;;8.50;99.90;;;;;;4987466;28;20501;-75
2023/03/20 04:10:41;;;;;;;7.93;6.60;;;8.50;99.90;;;;;;4990855;28;20488;-75
2023/03/20 04:13:09;;;;;;;8.90;6.40;;;8.60;99.90;;;;;;4981990;28;20877;-75
2023/03/20 04:15:38;;;;;;;8.57;6.20;;;8.60;99.90;;;;;;4988192;28;20472;-76
2023/03/20 04:18:06;;;;;;;7.33;5.80;;;8.50;99.90;;;;;;4991482;28;20481;-75
2023/03/20 04:20:34;;;;;;;7.80;6.57;;;8.50;99.90;;;;;;4983886;28;20481;-75
2023/03/20 04:23:03;;;;;;;6.87;5.37;;;8.50;99.90;;;;;;4984311;28;20567;-75
2023/03/20 04:25:31;;;;;;;8.70;6.13;;;8.50;99.90;;;;;;4990964;28;20480;-76
2023/03/20 04:28:00;;;;;;;7.97;6.70;;;8.50;99.90;;;;;;4982107;28;20477;-75
2023/03/20 04:30:29;;;;;;;7.20;6.20;;;8.50;99.90;;;;;;4982230;28;20492;-76
2023/03/20 04:32:57;;;;;;;7.70;6.70;;;8.50;99.90;;;;;;4983701;28;21045;-76
2023/03/20 04:35:25;;;;;;;9.37;6.87;;;8.50;99.90;;;;;;4988084;28;20501;-74
2023/03/20 04:37:53;;;;;;;7.60;6.57;;;8.50;99.90;;;;;;4989069;28;20473;-77
2023/03/20 04:40:21;;;;;;;9.47;6.90;;;8.50;99.90;;;;;;4984631;28;20525;-75
2023/03/20 04:42:49;;;;;;;7.90;6.10;;;8.40;99.90;;;;;;4991139;28;20864;-75
2023/03/20 04:45:19;;;;;;;8.93;6.73;;;8.40;99.90;;;;;;4992916;28;20468;-75
2023/03/20 04:47:47;;;;;;;9.13;6.30;;;8.40;99.90;;;;;;4990496;28;20500;-76
2023/03/20 04:50:15;;;;;;;9.17;6.73;;;8.40;99.90;;;;;;4990645;28;20496;-75
2023/03/20 04:52:43;;;;;;;9.33;6.90;;;8.50;99.90;;;;;;4990656;28;20500;-75
2023/03/20 04:55:11;;;;;;;8.17;6.80;;;8.50;99.90;;;;;;4992227;28;21088;-74
2023/03/20 04:57:39;;;;;;;9.27;7.27;;;8.40;99.90;;;;;;4998677;28;20476;-76
2023/03/20 05:00:09;;;;;;;9.03;6.93;;;8.40;99.90;;;;;;4997291;28;21052;-75
2023/03/20 05:02:39;;;;;;;8.47;6.67;;;8.40;99.90;;;;;;4997376;28;20489;-76
2023/03/20 05:05:07;;;;;;;9.00;7.37;;;8.50;99.90;;;;;;4991961;28;20562;-75
2023/03/20 05:07:35;;;;;;;8.80;6.83;;;8.50;99.90;;;;;;4990878;28;20974;-75
2023/03/20 05:10:05;;;;;;;8.80;7.20;;;8.50;99.90;;;;;;4992074;28;21056;-75
2023/03/20 05:12:33;;;;;;;9.30;7.70;;;8.40;99.90;;;;;;4993360;28;20733;-76
2023/03/20 05:15:01;;;;;;;9.07;7.77;;;8.40;99.90;;;;;;4993401;28;20469;-75
2023/03/20 05:17:29;;;;;;;9.17;7.10;;;8.40;99.90;;;;;;4991936;28;20465;-76
2023/03/20 05:19:58;;;;;;;9.80;7.53;;;8.40;99.90;;;;;;4990213;28;21167;-75
2023/03/20 05:22:26;;;;;;;8.07;7.13;;;8.40;99.90;;;;;;4985377;28;20512;-75
2023/03/20 05:24:54;;;;;;;9.60;7.50;;;8.40;99.90;;;;;;4988827;28;20488;-76
2023/03/20 05:27:22;;;;;;;9.93;7.70;;;8.40;99.90;;;;;;4992561;28;20477;-75
2023/03/20 05:29:50;;;;;;;9.33;7.77;;;8.40;99.90;;;;;;4990103;28;20580;-75
2023/03/20 05:32:18;;;;;;;10.40;7.17;;;8.30;99.90;;;;;;4987387;28;20496;-75
2023/03/20 05:34:46;;;;;;;8.30;7.07;;;8.40;99.90;;;;;;4988678;28;20473;-74
2023/03/20 05:37:15;;;;;;;9.20;7.03;;;8.40;99.90;;;;;;4984707;28;20528;-76
2023/03/20 05:39:43;;;;;;;8.03;6.93;;;8.40;99.90;;;;;;4989951;28;20501;-75
2023/03/20 05:42:11;;;;;;;8.03;6.17;;;8.30;99.90;;;;;;4975309;28;20504;-75
2023/03/20 05:44:39;;;;;;;7.60;6.63;;;8.30;99.90;;;;;;4986503;28;20469;-76
2023/03/20 05:47:07;;;;;;;7.93;6.40;;;8.30;99.90;;;;;;4980228;28;20481;-76
2023/03/20 05:49:35;;;;;;;8.47;6.43;;;8.30;99.90;;;;;;4982575;28;20493;-76
2023/03/20 05:52:03;;;;;;;6.40;5.80;;;8.30;99.90;;;;;;4985412;28;20492;-76
2023/03/20 05:54:33;;;;;;;8.90;6.63;;;8.30;99.90;;;;;;4985662;28;20483;-76
2023/03/20 05:57:01;;;;;;;9.80;6.87;;;8.30;99.90;;;;;;4980870;28;20901;-76
2023/03/20 05:59:29;;;;;;;9.03;6.80;;;8.30;99.90;;;;;;4983423;28;20849;-75
2023/03/20 06:01:57;;;;;;;7.17;6.23;;;8.30;99.90;;;;;;4975683;28;20495;-75
2023/03/20 06:04:25;;;;;;;9.83;6.57;;;8.30;99.90;;;;;;4974914;28;20488;-78
2023/03/20 06:06:53;;;;;;;8.23;6.73;;;8.30;99.90;;;;;;4979455;28;20617;-71
2023/03/20 06:09:21;;;;;;;8.67;7.20;;;8.30;99.90;;;;;;4975995;28;20496;-74
2023/03/20 06:11:50;;;;;;;8.63;7.20;;;8.30;99.90;;;;;;4990744;28;20496;-74
2023/03/20 06:14:18;;;;;;;10.13;7.43;;;8.20;99.90;;;;;;4990628;28;20503;-75
2023/03/20 06:16:46;;;;;;;9.17;7.63;;;8.30;99.90;;;;;;4991155;28;20469;-77
2023/03/20 06:19:15;;;;;;;10.93;8.40;;;8.30;99.90;;;;;;4991301;28;20870;-75
2023/03/20 06:21:43;;;;;;;11.13;8.70;;;8.20;99.90;;;;;;4975423;28;20473;-75
2023/03/20 06:24:11;;;;;;;12.30;9.30;;;8.30;99.90;;;;;;4977552;28;20543;-76
2023/03/20 06:26:39;;;;;;;12.37;9.77;;;8.30;99.90;;;;;;4981937;28;20480;-75
2023/03/20 06:29:08;;;;;;;13.00;10.30;;;8.30;99.90;;;;;;4978496;28;20595;-74
2023/03/20 06:31:39;;;;;;;14.50;11.00;;;8.20;99.90;;;;;;4969055;28;21086;-74
2023/03/20 06:34:07;;;;;;;16.40;10.17;;;8.30;99.90;;;;;;4969685;28;20636;-75
2023/03/20 06:36:35;;;;;;;14.73;10.53;;;8.30;99.90;;;;;;4965492;28;20480;-74
2023/03/20 06:39:04;;;;;;;12.90;10.23;;;8.30;99.90;;;;;;4976794;28;20508;-76
2023/03/20 06:41:31;;;;;;;13.87;9.97;;;8.30;99.90;;;;;;4979959;28;20469;-75
2023/03/20 06:44:02;;;;;;;12.03;9.17;;;8.30;99.90;;;;;;4969850;28;21137;-74
2023/03/20 06:46:31;;;;;;;11.33;8.37;;;8.30;99.90;;;;;;4975070;28;20511;-74
2023/03/20 06:49:00;;;;;;;10.57;8.50;;;8.30;99.90;;;;;;4977864;28;20499;-74
2023/03/20 06:51:28;;;;;;;11.17;8.77;;;8.40;99.90;;;;;;4985798;28;20476;-74
2023/03/20 06:53:56;;;;;;;11.60;8.10;;;8.40;99.90;;;;;;4979720;28;21026;-75
2023/03/20 06:56:24;;;;;;;9.57;8.10;;;8.40;99.90;;;;;;4978673;28;20461;-74
2023/03/20 06:58:52;;;;;;;9.73;7.53;;;8.50;99.90;;;;;;4979420;28;20490;-76
2023/03/20 07:01:20;;;;;;;10.17;7.93;;;8.50;99.90;;;;;;4985420;28;20878;-74
2023/03/20 07:03:50;;;;;;;8.90;7.73;;;8.50;99.90;;;;;;4983153;28;20516;-74
2023/03/20 07:06:18;;;;;;;9.97;6.70;;;8.50;99.90;;;;;;4980201;28;20710;-76
2023/03/20 07:08:46;;;;;;;7.80;6.60;;;8.50;99.90;;;;;;4983086;28;20868;-75
2023/03/20 07:11:14;;;;;;;7.23;6.50;;;8.50;99.90;;;;;;4987196;28;20475;-74
2023/03/20 07:13:42;;;;;;;7.30;6.40;;;8.60;99.90;;;;;;4984130;28;20504;-75
2023/03/20 07:16:11;;;;;;;6.70;5.37;;;8.60;99.90;;;;;;4983693;28;20481;-75
2023/03/20 07:18:39;;;;;;;8.43;5.13;;;8.60;99.90;;;;;;4982452;28;20470;-75
2023/03/20 07:21:08;;;;;;;7.50;4.97;;;8.60;99.90;;;;;;4980620;28;20480;-75
2023/03/20 07:23:36;;;;;;;6.90;6.13;;;8.60;99.90;;;;;;4983238;28;20500;-75
2023/03/20 07:26:05;;;;;;;7.70;5.83;;;8.60;99.90;;;;;;4989461;28;21272;-74
2023/03/20 07:28:33;;;;;;;6.43;5.80;;;8.60;99.90;;;;;;4981938;28;20978;-75
2023/03/20 07:31:01;;;;;;;8.60;6.60;;;8.60;99.90;;;;;;4978835;28;20477;-75
2023/03/20 07:33:29;;;;;;;7.07;6.33;;;8.60;99.90;;;;;;4965503;28;20543;-74
2023/03/20 07:35:57;;;;;;;7.40;6.40;;;8.60;99.90;;;;;;4963156;28;20555;-75
2023/03/20 07:38:27;;;;;;;6.80;6.10;;;8.60;99.90;;;;;;4960153;28;20484;-75
2023/03/20 07:40:55;;;;;;;7.10;6.30;;;8.60;99.90;;;;;;4975201;28;20480;-73
2023/03/20 07:43:23;;;;;;;7.63;6.37;;;8.60;99.90;;;;;;4971974;28;20573;-75
2023/03/20 07:45:51;;;;;;;8.33;7.30;;;8.70;99.90;;;;;;4970124;28;20496;-75
2023/03/20 07:48:19;;;;;;;7.73;6.50;;;8.70;99.90;;;;;;4980934;28;20481;-76
2023/03/20 07:50:47;;;;;;;8.17;6.80;;;8.70;99.90;;;;;;4980705;28;20477;-76
2023/03/20 07:53:15;;;;;;;7.00;6.27;;;8.70;99.90;;;;;;4972199;28;20771;-75
2023/03/20 07:55:45;;;;;;;6.90;6.20;;;8.70;99.90;;;;;;4975655;28;20655;-76
2023/03/20 07:58:13;;;;;;;8.30;6.80;;;8.80;99.90;;;;;;4977981;28;21014;-75
2023/03/20 08:00:41;;;;;;;7.80;6.10;;;8.80;99.90;;;;;;4967116;28;20488;-76
2023/03/20 08:03:09;;;;;;;8.00;6.27;;;8.80;99.90;;;;;;4981754;28;20489;-76
2023/03/20 08:05:38;;;;;;;7.80;6.10;;;8.80;99.90;;;;;;4983252;28;20994;-74
2023/03/20 08:08:06;;;;;;;6.20;5.60;;;8.80;99.90;;;;;;4980336;28;20487;-76
2023/03/20 08:10:35;;;;;;;7.30;6.13;;;8.90;99.90;;;;;;4980720;28;20504;-74
2023/03/20 08:13:04;;;;;;;6.50;5.47;;;8.90;99.90;;;;;;4980092;28;20577;-74
2023/03/20 08:15:32;;;;;;;5.90;5.10;;;8.90;99.90;;;;;;4980544;28;20900;-75
2023/03/20 08:18:00;;;;;;;7.47;5.50;;;8.90;99.90;;;;;;4983254;28;20545;-75
2023/03/20 08:20:30;;;;;;;6.13;5.10;;;9.00;99.90;;;;;;4966827;28;20492;-75
2023/03/20 08:22:58;;;;;;;6.17;5.57;;;9.00;99.90;;;;;;4974389;28;20493;-73
2023/03/20 08:25:28;;;;;;;6.00;5.40;;;9.00;99.90;;;;;;4982144;28;20481;-76
2023/03/20 08:27:56;;;;;;;6.33;4.80;;;8.90;99.90;;;;;;4976296;28;20480;-76
2023/03/20 08:30:25;;;;;;;8.70;4.93;;;9.00;99.90;;;;;;4978240;28;20501;-77
2023/03/20 08:32:54;;;;;;;6.33;5.23;;;8.90;99.90;;;;;;4982786;28;20497;-76
2023/03/20 08:35:22;;;;;;;6.77;5.23;;;9.00;99.90;;;;;;4977598;28;20552;-75
2023/03/20 08:38:01;;;;;;;7.53;5.50;;;9.00;99.90;;;;;;4981968;28;20481;-76
2023/03/20 08:40:29;;;;;;;5.53;5.00;;;9.00;99.90;;;;;;4983792;28;20493;-75
2023/03/20 08:42:58;;;;;;;6.20;4.87;;;9.00;99.90;;;;;;4970915;28;20481;-76
2023/03/20 08:45:27;;;;;;;5.53;5.03;;;9.00;99.90;;;;;;4982125;28;20483;-75
2023/03/20 08:47:55;;;;;;;8.60;5.80;;;9.00;99.90;;;;;;4977569;28;20974;-67
2023/03/20 08:50:23;;;;;;;6.90;4.93;;;9.00;99.90;;;;;;4989002;28;20568;-77
2023/03/20 08:52:51;;;;;;;6.67;5.10;;;9.10;99.90;;;;;;4978659;28;20499;-76
2023/03/20 08:55:19;;;;;;;7.87;5.57;;;9.10;99.90;;;;;;4978684;28;20473;-75
2023/03/20 08:57:47;;;;;;;5.93;5.17;;;9.10;99.90;;;;;;4981937;28;20519;-75
2023/03/20 09:00:18;;;;;;;6.17;5.13;;;9.20;99.90;;;;;;4989650;28;20493;-76
2023/03/20 09:02:47;;;;;;;5.83;5.13;;;9.20;99.90;;;;;;4978706;28;20492;-75
2023/03/20 09:05:15;;;;;;;5.83;5.23;;;9.20;99.90;;;;;;4983634;28;20488;-75
2023/03/20 09:07:43;;;;;;;5.80;5.20;;;9.20;99.90;;;;;;4971258;28;20559;-77
2023/03/20 09:10:12;;;;;;;8.57;5.93;;;9.20;99.90;;;;;;4979749;28;20488;-77
2023/03/20 09:12:40;;;;;;;8.50;6.27;;;9.30;99.90;;;;;;4978528;28;20927;-75
2023/03/20 09:15:09;;;;;;;7.20;6.47;;;9.30;99.90;;;;;;4969465;28;20501;-75
2023/03/20 09:17:37;;;;;;;7.23;6.40;;;9.30;99.90;;;;;;4974748;28;20876;-77
2023/03/20 09:20:08;;;;;;;8.67;6.40;;;9.30;99.90;;;;;;4972842;28;20503;-75
2023/03/20 09:22:36;;;;;;;8.60;6.60;;;9.30;99.90;;;;;;4973724;28;20493;-76
2023/03/20 09:25:05;;;;;;;6.70;6.00;;;9.30;99.90;;;;;;4978006;28;20469;-76
2023/03/20 09:27:33;;;;;;;8.37;5.90;;;9.30;99.90;;;;;;4965127;28;20604;-75
2023/03/20 09:30:01;;;;;;;7.63;5.87;;;9.30;99.90;;;;;;4965503;28;20516;-75
2023/03/20 09:32:29;;;;;;;7.07;5.93;;;9.40;99.90;;;;;;4967887;28;21104;-74
2023/03/20 09:34:56;;;;;;;6.03;5.33;;;9.40;99.90;;;;;;4967923;28;20516;-76
2023/03/20 09:37:26;;;;;;;7.67;6.13;;;9.40;99.90;;;;;;4975673;28;20843;-77
2023/03/20 09:39:54;;;;;;;6.20;5.57;;;9.40;99.90;;;;;;4986872;28;20849;-77
2023/03/20 09:42:32;;;;;;;6.93;5.40;;;9.40;99.90;;;;;;4985740;28;21035;-74
2023/03/20 09:45:10;;;;;;;6.10;5.07;;;9.40;99.90;;;;;;4980146;28;20468;-76
2023/03/20 09:47:47;;;;;;;8.40;5.53;;;9.40;99.90;;;;;;4983541;28;20592;-75
2023/03/20 09:50:28;;;;;;;6.20;5.60;;;9.40;99.90;;;;;;4981930;28;20508;-76
2023/03/20 09:53:05;;;;;;;6.83;5.77;;;9.50;99.90;;;;;;4972101;28;20568;-76
2023/03/20 09:55:36;;;;;;;8.43;6.20;;;9.50;99.90;;;;;;4981176;28;20465;-77
2023/03/20 09:58:11;;;;;;;7.10;6.40;;;9.60;99.90;;;;;;4980980;28;20539;-76
2023/03/20 10:00:42;;;;;;;7.00;5.93;;;9.60;99.90;;;;;;4980368;28;20492;-77
2023/03/20 10:03:18;;;;;;;7.97;6.13;;;9.50;99.90;;;;;;4981060;28;20546;-77
2023/03/20 10:05:52;;;;;;;9.33;6.90;;;9.60;99.90;;;;;;4979789;28;20480;-76
2023/03/20 10:08:25;;;;;;;10.00;6.90;;;9.50;99.90;;;;;;4983182;28;20480;-76
2023/03/20 10:11:02;;;;;;;7.50;6.70;;;9.50;99.90;;;;;;4981347;28;20473;-75
2023/03/20 10:13:48;;;;;;;10.40;8.00;;;9.50;99.90;;;;;;4983238;28;20576;-77
2023/03/20 10:16:24;;;;;;;10.20;7.70;;;9.50;99.90;;;;;;4974053;28;20531;-75
2023/03/20 10:19:01;;;;;;;7.80;6.97;;;9.50;99.90;;;;;;4977977;28;20488;-76
2023/03/20 10:21:40;;;;;;;8.50;6.70;;;9.50;99.90;;;;;;4977845;28;20472;-75
2023/03/20 10:24:18;;;;;;;8.60;7.37;;;9.50;99.90;;;;;;4946942;28;20482;-76
2023/03/20 10:26:51;;;;;;;9.67;7.03;;;9.50;99.90;;;;;;4960701;28;20481;-76
2023/03/20 10:29:28;;;;;;;8.70;7.33;;;9.50;99.90;;;;;;4959060;28;20516;-76
2023/03/20 10:32:03;;;;;;;7.93;6.80;;;9.50;99.90;;;;;;4962687;28;20495;-77
2023/03/20 10:34:44;;;;;;;8.47;6.50;;;9.50;99.90;;;;;;4974978;28;20519;-75
2023/03/20 10:37:32;;;;;;;8.67;7.40;;;9.60;99.90;;;;;;4972374;28;20484;-74
2023/03/20 10:40:28;;;;;;;9.30;6.93;;;9.60;99.90;;;;;;4968867;28;20505;-74
2023/03/20 10:43:01;;;;;;;10.13;7.90;;;9.60;99.90;;;;;;4980276;28;20488;-76
2023/03/20 10:45:38;;;;;;;7.63;6.83;;;9.60;99.90;;;;;;4976622;28;20475;-73
2023/03/20 10:48:14;;;;;;;7.90;6.93;;;9.70;99.90;;;;;;4974092;28;21125;-73
2023/03/20 10:50:47;;;;;;;10.57;8.00;;;9.60;99.90;;;;;;4980907;28;20497;-73
2023/03/20 10:53:24;;;;;;;10.43;7.37;;;9.60;99.90;;;;;;4976341;28;20493;-73
2023/03/20 10:55:57;;;;;;;10.93;7.60;;;9.60;99.90;;;;;;4983325;28;20504;-74
2023/03/20 10:58:29;;;;;;;11.20;7.33;;;9.60;99.90;;;;;;4982046;28;20572;-75
2023/03/20 11:00:58;;;;;;;8.83;7.30;;;9.70;99.90;;;;;;4984663;28;20476;-73
2023/03/20 11:03:28;;;;;;;9.80;7.70;;;9.70;99.90;;;;;;4979459;28;21021;-73
2023/03/20 11:06:01;;;;;;;9.20;7.20;;;9.80;99.90;;;;;;4980975;28;20470;-73
2023/03/20 11:08:40;;;;;;;8.23;6.40;;;9.80;99.90;;;;;;4985538;28;20473;-73
2023/03/20 11:11:10;;;;;;;8.90;7.27;;;9.80;99.90;;;;;;4983122;28;20476;-73
2023/03/20 11:13:41;;;;;;;10.23;7.90;;;9.80;99.90;;;;;;4983843;28;20493;-74
2023/03/20 11:16:19;;;;;;;9.60;7.30;;;9.80;99.90;;;;;;4985062;28;20605;-74
2023/03/20 11:18:48;;;;;;;8.40;7.47;;;9.80;99.90;;;;;;4977625;28;20539;-75
2023/03/20 11:21:23;;;;;;;7.97;6.73;;;9.90;99.90;;;;;;4983970;28;20469;-74
2023/03/20 11:23:52;;;;;;;7.83;7.13;;;9.90;99.90;;;;;;4982720;28;20488;-72
2023/03/20 11:26:35;;;;;;;11.33;7.50;;;9.90;99.90;;;;;;4978788;28;20472;-73
2023/03/20 11:29:06;;;;;;;6.70;6.10;;;10.00;99.90;;;;;;4979768;28;20500;-75
2023/03/20 11:31:36;;;;;;;6.70;5.90;;;10.00;99.90;;;;;;4979177;28;20479;-74
2023/03/20 11:34:22;;;;;;;9.43;7.40;;;10.00;99.90;;;;;;4981746;28;20484;-72
2023/03/20 11:36:56;;;;;;;7.70;6.83;;;10.00;99.90;;;;;;4981504;28;20480;-74
2023/03/20 11:39:38;;;;;;;7.80;6.30;;;10.00;99.90;;;;;;4977691;28;21020;-73
2023/03/20 11:42:23;;;;;;;7.77;6.73;;;10.00;99.90;;;;;;4977873;28;21103;-73
2023/03/20 11:44:58;;;;;;;10.30;6.83;;;10.00;99.90;;;;;;4978716;28;20461;-73
2023/03/20 11:47:27;;;;;;;8.53;7.00;;;10.00;99.90;;;;;;4975481;28;20559;-72
2023/03/20 11:49:58;;;;;;;8.30;6.73;;;10.00;99.90;;;;;;4974742;28;20527;-74
2023/03/20 11:52:29;;;;;;;8.33;6.47;;;10.00;99.90;;;;;;4976082;28;20515;-73
2023/03/20 11:54:59;;;;;;;8.77;6.80;;;10.00;99.90;;;;;;4984175;28;20596;-73
2023/03/20 11:57:35;;;;;;;7.23;6.50;;;10.00;99.90;;;;;;4979849;28;20842;-73
2023/03/20 12:00:07;;;;;;;9.00;7.30;;;10.00;99.90;;;;;;4983410;28;20572;-73
2023/03/20 12:02:36;;;;;;;8.53;6.60;;;9.90;99.90;;;;;;4971105;28;21086;-75
2023/03/20 12:05:23;;;;;;;8.10;6.80;;;9.90;99.90;;;;;;4979830;28;20500;-73
2023/03/20 12:07:56;;;;;;;9.93;5.90;;;9.90;99.90;;;;;;4983349;28;21029;-75
2023/03/20 12:10:30;;;;;;;8.63;6.03;;;9.90;99.90;;;;;;4979149;28;20828;-74
2023/03/20 12:13:03;;;;;;;7.60;6.90;;;9.90;99.90;;;;;;4980559;28;20504;-74
2023/03/20 12:15:34;;;;;;;7.27;6.57;;;9.90;99.90;;;;;;4971641;28;23131;-74
2023/03/20 12:18:06;;;;;;;7.20;6.50;;;9.90;99.90;;;;;;4986335;28;20993;-73
2023/03/20 12:20:40;;;;;;;8.10;5.90;;;10.00;99.90;;;;;;4973570;28;20493;-72
2023/03/20 12:23:13;;;;;;;7.37;6.20;;;10.00;99.90;;;;;;4974598;28;20496;-76
2023/03/20 12:25:48;;;;;;;7.37;6.63;;;10.10;99.90;;;;;;4981983;28;20488;-73
2023/03/20 12:28:24;;;;;;;8.13;7.10;;;10.10;99.90;;;;;;4968013;28;20495;-74
2023/03/20 12:31:06;;;;;;;7.40;6.60;;;10.10;99.90;;;;;;4969734;28;20484;-74
2023/03/20 12:33:41;;;;;;;8.50;6.70;;;10.20;99.90;;;;;;4978892;28;20516;-75
2023/03/20 12:36:15;;;;;;;8.77;6.90;;;10.20;99.90;;;;;;4981846;28;21029;-75
2023/03/20 12:38:44;;;;;;;9.00;6.97;;;10.20;99.90;;;;;;4979872;28;20512;-74
2023/03/20 12:41:15;;;;;;;8.03;6.90;;;10.20;99.90;;;;;;4976314;28;20836;-75
2023/03/20 12:44:08;;;;;;;10.50;6.80;;;10.30;99.90;;;;;;4983175;28;20492;-75
2023/03/20 12:46:43;;;;;;;9.83;6.93;;;10.30;99.90;;;;;;4982462;28;20474;-73
2023/03/20 12:49:27;;;;;;;8.03;6.40;;;10.40;99.90;;;;;;4985629;28;20488;-75
2023/03/20 12:52:06;;;;;;;7.30;6.60;;;10.50;99.90;;;;;;4980808;28;20488;-74
2023/03/20 12:54:58;;;;;;;8.73;6.97;;;10.70;99.90;;;;;;4972423;28;20476;-73
2023/03/20 12:57:33;;;;;;;6.90;6.20;;;11.20;99.90;;;;;;4984662;28;20469;-73
2023/03/20 13:00:14;;;;;;;7.10;6.40;;;11.60;99.90;;;;;;4982395;28;20861;-72
2023/03/20 13:02:55;;;;;;;8.43;6.60;;;11.70;99.90;;;;;;4981209;28;20493;-72
2023/03/20 13:05:44;;;;;;;7.30;6.60;;;11.70;99.90;;;;;;4985723;28;20560;-72
2023/03/20 13:08:41;;;;;;;6.63;5.97;;;11.60;99.90;;;;;;4986085;28;20491;-74
2023/03/20 13:11:17;;;;;;;8.03;6.27;;;11.50;99.90;;;;;;4986344;28;20487;-73
2023/03/20 13:13:52;;;;;;;7.10;6.43;;;11.50;99.90;;;;;;4985709;28;20480;-73
2023/03/20 13:16:30;;;;;;;7.20;6.50;;;11.40;99.90;;;;;;4986808;28;20503;-74